sensor_id;sensor_type;location;lat;lon;timestamp;P1;durP1;ratioP1;P2;durP2;ratioP2
80136;SDS011;69466;55.948;37.484;2023-09-19T00:01:33;14.77;;;9.27;;
80136;SDS011;69466;55.948;37.484;2023-09-19T00:03:59;14.98;;;9.98;;
80136;SDS011;69466;55.948;37.484;2023-09-19T00:06:29;18.63;;;10.05;;
80136;SDS011;69466;55.948;37.484;2023-09-19T00:08:57;14.90;;;8.65;;
80136;SDS011;69466;55.948;37.484;2023-09-19T00:11:26;16.80;;;9.55;;
80136;SDS011;69466;55.948;37.484;2023-09-19T00:13:52;15.43;;;9.80;;
80136;SDS011;69466;55.948;37.484;2023-09-19T00:16:19;15.65;;;9.48;;
80136;SDS011;69466;55.948;37.484;2023-09-19T00:18:45;17.65;;;12.43;;
80136;SDS011;69466;55.948;37.484;2023-09-19T00:21:11;16.73;;;9.85;;
80136;SDS011;69466;55.948;37.484;2023-09-19T00:23:38;14.80;;;10.68;;
80136;SDS011;69466;55.948;37.484;2023-09-19T00:26:06;15.93;;;9.90;;
80136;SDS011;69466;55.948;37.484;2023-09-19T00:28:32;13.27;;;8.60;;
80136;SDS011;69466;55.948;37.484;2023-09-19T00:30:59;15.45;;;9.32;;
80136;SDS011;69466;55.948;37.484;2023-09-19T00:33:28;19.27;;;11.05;;
80136;SDS011;69466;55.948;37.484;2023-09-19T00:35:56;19.67;;;10.75;;
80136;SDS011;69466;55.948;37.484;2023-09-19T00:38:23;16.92;;;9.65;;
80136;SDS011;69466;55.948;37.484;2023-09-19T00:40:53;13.80;;;9.23;;
80136;SDS011;69466;55.948;37.484;2023-09-19T00:43:20;13.55;;;9.18;;
80136;SDS011;69466;55.948;37.484;2023-09-19T00:45:51;17.83;;;10.57;;
80136;SDS011;69466;55.948;37.484;2023-09-19T00:48:23;13.90;;;9.05;;
80136;SDS011;69466;55.948;37.484;2023-09-19T00:50:52;15.27;;;9.02;;
80136;SDS011;69466;55.948;37.484;2023-09-19T00:53:20;15.80;;;9.18;;
80136;SDS011;69466;55.948;37.484;2023-09-19T00:55:48;13.02;;;8.68;;
80136;SDS011;69466;55.948;37.484;2023-09-19T00:58:16;14.07;;;8.82;;
80136;SDS011;69466;55.948;37.484;2023-09-19T01:00:44;13.82;;;8.10;;
80136;SDS011;69466;55.948;37.484;2023-09-19T01:03:12;13.30;;;7.10;;
80136;SDS011;69466;55.948;37.484;2023-09-19T01:05:40;11.50;;;7.82;;
80136;SDS011;69466;55.948;37.484;2023-09-19T01:08:08;12.20;;;8.02;;
80136;SDS011;69466;55.948;37.484;2023-09-19T01:10:37;11.20;;;8.15;;
80136;SDS011;69466;55.948;37.484;2023-09-19T01:13:21;13.07;;;7.43;;
80136;SDS011;69466;55.948;37.484;2023-09-19T01:16:07;12.30;;;8.00;;
80136;SDS011;69466;55.948;37.484;2023-09-19T01:30:17;14.45;;;8.45;;
80136;SDS011;69466;55.948;37.484;2023-09-19T01:32:50;13.25;;;7.97;;
80136;SDS011;69466;55.948;37.484;2023-09-19T01:35:18;14.73;;;8.70;;
80136;SDS011;69466;55.948;37.484;2023-09-19T01:37:44;12.75;;;7.55;;
80136;SDS011;69466;55.948;37.484;2023-09-19T01:40:14;15.05;;;8.27;;
80136;SDS011;69466;55.948;37.484;2023-09-19T01:42:59;14.10;;;9.25;;
80136;SDS011;69466;55.948;37.484;2023-09-19T01:45:38;15.13;;;8.15;;
80136;SDS011;69466;55.948;37.484;2023-09-19T01:48:46;13.00;;;8.63;;
80136;SDS011;69466;55.948;37.484;2023-09-19T01:51:33;14.10;;;7.80;;
80136;SDS011;69466;55.948;37.484;2023-09-19T01:54:09;13.85;;;9.05;;
80136;SDS011;69466;55.948;37.484;2023-09-19T01:56:48;16.05;;;9.75;;
80136;SDS011;69466;55.948;37.484;2023-09-19T01:59:24;14.93;;;8.57;;
80136;SDS011;69466;55.948;37.484;2023-09-19T02:01:55;13.98;;;8.30;;
80136;SDS011;69466;55.948;37.484;2023-09-19T02:04:22;12.35;;;8.52;;
80136;SDS011;69466;55.948;37.484;2023-09-19T02:06:49;15.77;;;9.70;;
80136;SDS011;69466;55.948;37.484;2023-09-19T02:09:17;15.15;;;8.98;;
80136;SDS011;69466;55.948;37.484;2023-09-19T02:11:46;12.98;;;8.90;;
80136;SDS011;69466;55.948;37.484;2023-09-19T02:14:13;15.35;;;9.75;;
80136;SDS011;69466;55.948;37.484;2023-09-19T02:16:40;15.55;;;9.10;;
80136;SDS011;69466;55.948;37.484;2023-09-19T02:19:07;14.93;;;9.63;;
80136;SDS011;69466;55.948;37.484;2023-09-19T02:21:33;15.27;;;8.75;;
80136;SDS011;69466;55.948;37.484;2023-09-19T02:24:00;16.58;;;9.82;;
80136;SDS011;69466;55.948;37.484;2023-09-19T02:26:26;14.50;;;9.43;;
80136;SDS011;69466;55.948;37.484;2023-09-19T02:28:53;13.38;;;9.30;;
80136;SDS011;69466;55.948;37.484;2023-09-19T02:31:19;16.08;;;10.20;;
80136;SDS011;69466;55.948;37.484;2023-09-19T02:33:45;15.85;;;10.55;;
80136;SDS011;69466;55.948;37.484;2023-09-19T02:36:12;15.88;;;10.80;;
80136;SDS011;69466;55.948;37.484;2023-09-19T02:38:39;15.95;;;10.90;;
80136;SDS011;69466;55.948;37.484;2023-09-19T02:41:04;14.10;;;10.35;;
80136;SDS011;69466;55.948;37.484;2023-09-19T02:43:31;18.33;;;11.10;;
80136;SDS011;69466;55.948;37.484;2023-09-19T02:45:58;16.73;;;11.65;;
80136;SDS011;69466;55.948;37.484;2023-09-19T02:48:23;19.15;;;11.63;;
80136;SDS011;69466;55.948;37.484;2023-09-19T02:50:51;18.10;;;11.07;;
80136;SDS011;69466;55.948;37.484;2023-09-19T02:53:19;20.67;;;11.77;;
80136;SDS011;69466;55.948;37.484;2023-09-19T02:55:45;16.20;;;10.77;;
80136;SDS011;69466;55.948;37.484;2023-09-19T02:58:12;17.17;;;11.75;;
80136;SDS011;69466;55.948;37.484;2023-09-19T03:00:41;17.60;;;11.23;;
80136;SDS011;69466;55.948;37.484;2023-09-19T03:03:08;17.98;;;11.57;;
80136;SDS011;69466;55.948;37.484;2023-09-19T03:05:35;20.63;;;11.35;;
80136;SDS011;69466;55.948;37.484;2023-09-19T03:08:02;14.43;;;10.18;;
80136;SDS011;69466;55.948;37.484;2023-09-19T03:10:33;18.10;;;11.48;;
80136;SDS011;69466;55.948;37.484;2023-09-19T03:13:00;15.98;;;10.80;;
80136;SDS011;69466;55.948;37.484;2023-09-19T03:15:26;17.33;;;10.57;;
80136;SDS011;69466;55.948;37.484;2023-09-19T03:17:53;17.02;;;9.95;;
80136;SDS011;69466;55.948;37.484;2023-09-19T03:20:22;15.90;;;9.98;;
80136;SDS011;69466;55.948;37.484;2023-09-19T03:22:50;15.35;;;10.52;;
80136;SDS011;69466;55.948;37.484;2023-09-19T03:25:18;18.25;;;12.05;;
80136;SDS011;69466;55.948;37.484;2023-09-19T03:27:48;14.88;;;10.13;;
80136;SDS011;69466;55.948;37.484;2023-09-19T03:30:18;14.10;;;9.38;;
80136;SDS011;69466;55.948;37.484;2023-09-19T03:32:45;14.63;;;9.43;;
80136;SDS011;69466;55.948;37.484;2023-09-19T03:35:16;18.15;;;10.32;;
80136;SDS011;69466;55.948;37.484;2023-09-19T03:37:45;16.55;;;10.38;;
80136;SDS011;69466;55.948;37.484;2023-09-19T03:40:12;14.52;;;10.10;;
80136;SDS011;69466;55.948;37.484;2023-09-19T03:42:39;17.98;;;9.90;;
80136;SDS011;69466;55.948;37.484;2023-09-19T03:45:08;13.88;;;9.25;;
80136;SDS011;69466;55.948;37.484;2023-09-19T03:47:50;13.93;;;9.20;;
80136;SDS011;69466;55.948;37.484;2023-09-19T03:50:19;13.40;;;8.55;;
80136;SDS011;69466;55.948;37.484;2023-09-19T03:52:45;14.48;;;9.45;;
80136;SDS011;69466;55.948;37.484;2023-09-19T03:55:11;13.65;;;9.73;;
80136;SDS011;69466;55.948;37.484;2023-09-19T03:57:38;18.75;;;11.32;;
80136;SDS011;69466;55.948;37.484;2023-09-19T04:00:04;14.48;;;9.02;;
80136;SDS011;69466;55.948;37.484;2023-09-19T04:02:40;12.98;;;9.35;;
80136;SDS011;69466;55.948;37.484;2023-09-19T04:05:07;14.48;;;8.85;;
80136;SDS011;69466;55.948;37.484;2023-09-19T04:07:35;13.13;;;8.05;;
80136;SDS011;69466;55.948;37.484;2023-09-19T04:10:00;12.77;;;8.80;;
80136;SDS011;69466;55.948;37.484;2023-09-19T04:12:31;12.88;;;8.93;;
80136;SDS011;69466;55.948;37.484;2023-09-19T04:14:58;20.52;;;9.90;;
80136;SDS011;69466;55.948;37.484;2023-09-19T04:17:24;27.90;;;13.43;;
80136;SDS011;69466;55.948;37.484;2023-09-19T04:19:51;27.80;;;13.10;;
80136;SDS011;69466;55.948;37.484;2023-09-19T04:22:20;17.25;;;8.40;;
80136;SDS011;69466;55.948;37.484;2023-09-19T04:24:46;14.85;;;8.75;;
80136;SDS011;69466;55.948;37.484;2023-09-19T04:27:12;10.50;;;7.38;;
80136;SDS011;69466;55.948;37.484;2023-09-19T04:29:40;15.57;;;7.47;;
80136;SDS011;69466;55.948;37.484;2023-09-19T04:32:07;11.32;;;7.78;;
80136;SDS011;69466;55.948;37.484;2023-09-19T04:34:33;11.68;;;8.93;;
80136;SDS011;69466;55.948;37.484;2023-09-19T04:37:03;14.57;;;8.38;;
80136;SDS011;69466;55.948;37.484;2023-09-19T04:39:30;17.05;;;9.02;;
80136;SDS011;69466;55.948;37.484;2023-09-19T04:41:56;17.40;;;8.48;;
80136;SDS011;69466;55.948;37.484;2023-09-19T04:44:24;12.57;;;7.90;;
80136;SDS011;69466;55.948;37.484;2023-09-19T04:46:50;12.55;;;7.40;;
80136;SDS011;69466;55.948;37.484;2023-09-19T04:49:16;13.18;;;8.43;;
80136;SDS011;69466;55.948;37.484;2023-09-19T04:51:43;11.27;;;8.07;;
80136;SDS011;69466;55.948;37.484;2023-09-19T04:54:12;11.13;;;7.68;;
80136;SDS011;69466;55.948;37.484;2023-09-19T04:56:38;11.27;;;7.82;;
80136;SDS011;69466;55.948;37.484;2023-09-19T04:59:05;13.90;;;8.45;;
80136;SDS011;69466;55.948;37.484;2023-09-19T05:01:32;13.00;;;8.60;;
80136;SDS011;69466;55.948;37.484;2023-09-19T05:03:59;13.32;;;8.55;;
80136;SDS011;69466;55.948;37.484;2023-09-19T05:06:25;12.75;;;8.00;;
80136;SDS011;69466;55.948;37.484;2023-09-19T05:08:52;11.65;;;7.57;;
80136;SDS011;69466;55.948;37.484;2023-09-19T05:11:19;11.75;;;7.60;;
80136;SDS011;69466;55.948;37.484;2023-09-19T05:13:47;13.32;;;8.52;;
80136;SDS011;69466;55.948;37.484;2023-09-19T05:16:16;13.18;;;8.70;;
80136;SDS011;69466;55.948;37.484;2023-09-19T05:18:42;12.25;;;8.38;;
80136;SDS011;69466;55.948;37.484;2023-09-19T05:21:08;13.15;;;8.77;;
80136;SDS011;69466;55.948;37.484;2023-09-19T05:23:34;13.00;;;8.77;;
80136;SDS011;69466;55.948;37.484;2023-09-19T05:26:00;12.18;;;8.52;;
80136;SDS011;69466;55.948;37.484;2023-09-19T05:28:27;13.70;;;8.75;;
80136;SDS011;69466;55.948;37.484;2023-09-19T05:30:53;11.85;;;7.82;;
80136;SDS011;69466;55.948;37.484;2023-09-19T05:33:19;14.88;;;10.32;;
80136;SDS011;69466;55.948;37.484;2023-09-19T05:35:48;12.98;;;8.27;;
80136;SDS011;69466;55.948;37.484;2023-09-19T05:38:14;10.85;;;7.95;;
80136;SDS011;69466;55.948;37.484;2023-09-19T05:40:45;11.60;;;8.43;;
80136;SDS011;69466;55.948;37.484;2023-09-19T05:43:11;12.73;;;8.30;;
80136;SDS011;69466;55.948;37.484;2023-09-19T05:45:40;11.32;;;8.60;;
80136;SDS011;69466;55.948;37.484;2023-09-19T05:48:08;15.55;;;8.75;;
80136;SDS011;69466;55.948;37.484;2023-09-19T05:50:42;25.95;;;10.75;;
80136;SDS011;69466;55.948;37.484;2023-09-19T05:53:09;13.10;;;8.65;;
80136;SDS011;69466;55.948;37.484;2023-09-19T05:55:38;16.00;;;8.65;;
80136;SDS011;69466;55.948;37.484;2023-09-19T05:58:04;15.95;;;8.23;;
80136;SDS011;69466;55.948;37.484;2023-09-19T06:00:30;13.25;;;9.18;;
80136;SDS011;69466;55.948;37.484;2023-09-19T06:02:58;14.10;;;9.27;;
80136;SDS011;69466;55.948;37.484;2023-09-19T06:05:25;17.38;;;9.75;;
80136;SDS011;69466;55.948;37.484;2023-09-19T06:07:52;13.80;;;9.00;;
80136;SDS011;69466;55.948;37.484;2023-09-19T06:10:19;16.67;;;9.73;;
80136;SDS011;69466;55.948;37.484;2023-09-19T06:12:48;14.13;;;9.80;;
80136;SDS011;69466;55.948;37.484;2023-09-19T06:15:15;14.52;;;9.25;;
80136;SDS011;69466;55.948;37.484;2023-09-19T06:17:48;14.43;;;9.38;;
80136;SDS011;69466;55.948;37.484;2023-09-19T06:20:15;15.07;;;9.27;;
80136;SDS011;69466;55.948;37.484;2023-09-19T06:22:43;14.23;;;9.13;;
80136;SDS011;69466;55.948;37.484;2023-09-19T06:25:10;14.35;;;10.27;;
80136;SDS011;69466;55.948;37.484;2023-09-19T06:27:38;14.05;;;9.02;;
80136;SDS011;69466;55.948;37.484;2023-09-19T06:30:09;16.83;;;8.77;;
80136;SDS011;69466;55.948;37.484;2023-09-19T06:32:38;13.18;;;8.63;;
80136;SDS011;69466;55.948;37.484;2023-09-19T06:35:05;14.27;;;8.43;;
80136;SDS011;69466;55.948;37.484;2023-09-19T06:37:37;11.43;;;8.43;;
80136;SDS011;69466;55.948;37.484;2023-09-19T06:40:08;15.02;;;9.43;;
80136;SDS011;69466;55.948;37.484;2023-09-19T06:42:43;11.60;;;8.40;;
80136;SDS011;69466;55.948;37.484;2023-09-19T06:45:11;14.82;;;8.68;;
80136;SDS011;69466;55.948;37.484;2023-09-19T06:47:47;11.10;;;8.30;;
80136;SDS011;69466;55.948;37.484;2023-09-19T06:52:44;12.65;;;8.90;;
80136;SDS011;69466;55.948;37.484;2023-09-19T06:55:14;13.18;;;9.52;;
80136;SDS011;69466;55.948;37.484;2023-09-19T06:57:42;18.70;;;9.80;;
80136;SDS011;69466;55.948;37.484;2023-09-19T07:00:11;14.27;;;9.55;;
80136;SDS011;69466;55.948;37.484;2023-09-19T07:02:42;17.88;;;9.93;;
80136;SDS011;69466;55.948;37.484;2023-09-19T07:05:08;14.65;;;10.65;;
80136;SDS011;69466;55.948;37.484;2023-09-19T07:07:35;17.10;;;10.20;;
80136;SDS011;69466;55.948;37.484;2023-09-19T07:10:02;15.68;;;11.10;;
80136;SDS011;69466;55.948;37.484;2023-09-19T07:12:31;16.42;;;10.93;;
80136;SDS011;69466;55.948;37.484;2023-09-19T07:14:58;17.52;;;11.07;;
80136;SDS011;69466;55.948;37.484;2023-09-19T07:17:24;19.77;;;11.65;;
80136;SDS011;69466;55.948;37.484;2023-09-19T07:19:50;18.30;;;11.60;;
80136;SDS011;69466;55.948;37.484;2023-09-19T07:22:17;21.30;;;12.65;;
80136;SDS011;69466;55.948;37.484;2023-09-19T07:24:42;18.60;;;11.95;;
80136;SDS011;69466;55.948;37.484;2023-09-19T07:27:08;18.80;;;11.73;;
80136;SDS011;69466;55.948;37.484;2023-09-19T07:29:34;16.40;;;11.43;;
80136;SDS011;69466;55.948;37.484;2023-09-19T07:32:00;19.88;;;12.25;;
80136;SDS011;69466;55.948;37.484;2023-09-19T07:34:26;18.67;;;11.75;;
80136;SDS011;69466;55.948;37.484;2023-09-19T07:36:52;17.52;;;11.75;;
80136;SDS011;69466;55.948;37.484;2023-09-19T07:39:18;22.38;;;12.73;;
80136;SDS011;69466;55.948;37.484;2023-09-19T07:41:44;16.85;;;12.43;;
80136;SDS011;69466;55.948;37.484;2023-09-19T07:44:10;17.92;;;12.63;;
80136;SDS011;69466;55.948;37.484;2023-09-19T07:46:36;18.15;;;12.55;;
80136;SDS011;69466;55.948;37.484;2023-09-19T07:49:02;21.40;;;13.23;;
80136;SDS011;69466;55.948;37.484;2023-09-19T07:51:28;18.25;;;11.43;;
80136;SDS011;69466;55.948;37.484;2023-09-19T07:53:54;20.20;;;12.77;;
80136;SDS011;69466;55.948;37.484;2023-09-19T07:56:20;23.42;;;12.98;;
80136;SDS011;69466;55.948;37.484;2023-09-19T07:58:48;25.35;;;13.73;;
80136;SDS011;69466;55.948;37.484;2023-09-19T08:01:14;23.75;;;13.82;;
80136;SDS011;69466;55.948;37.484;2023-09-19T08:03:41;22.17;;;13.63;;
80136;SDS011;69466;55.948;37.484;2023-09-19T08:06:09;19.40;;;12.10;;
80136;SDS011;69466;55.948;37.484;2023-09-19T08:08:36;20.65;;;12.52;;
80136;SDS011;69466;55.948;37.484;2023-09-19T08:11:04;18.95;;;14.00;;
80136;SDS011;69466;55.948;37.484;2023-09-19T08:13:38;23.60;;;14.95;;
80136;SDS011;69466;55.948;37.484;2023-09-19T08:16:09;21.60;;;13.65;;
80136;SDS011;69466;55.948;37.484;2023-09-19T08:18:36;19.90;;;13.35;;
80136;SDS011;69466;55.948;37.484;2023-09-19T08:21:06;20.65;;;13.70;;
80136;SDS011;69466;55.948;37.484;2023-09-19T08:23:37;21.65;;;13.90;;
80136;SDS011;69466;55.948;37.484;2023-09-19T08:26:07;20.35;;;13.63;;
80136;SDS011;69466;55.948;37.484;2023-09-19T08:28:35;20.30;;;13.07;;
80136;SDS011;69466;55.948;37.484;2023-09-19T08:31:05;25.50;;;14.85;;
80136;SDS011;69466;55.948;37.484;2023-09-19T08:33:36;18.63;;;12.95;;
80136;SDS011;69466;55.948;37.484;2023-09-19T08:36:03;20.33;;;13.95;;
80136;SDS011;69466;55.948;37.484;2023-09-19T08:38:33;23.38;;;14.68;;
80136;SDS011;69466;55.948;37.484;2023-09-19T08:41:04;20.67;;;14.40;;
80136;SDS011;69466;55.948;37.484;2023-09-19T08:43:33;21.98;;;13.15;;
80136;SDS011;69466;55.948;37.484;2023-09-19T08:46:11;23.15;;;14.88;;
80136;SDS011;69466;55.948;37.484;2023-09-19T08:48:51;23.00;;;14.77;;
80136;SDS011;69466;55.948;37.484;2023-09-19T08:51:27;21.48;;;14.60;;
80136;SDS011;69466;55.948;37.484;2023-09-19T08:54:08;23.45;;;15.00;;
80136;SDS011;69466;55.948;37.484;2023-09-19T08:56:39;23.58;;;14.75;;
80136;SDS011;69466;55.948;37.484;2023-09-19T08:59:07;21.63;;;14.80;;
80136;SDS011;69466;55.948;37.484;2023-09-19T09:01:35;23.48;;;14.57;;
80136;SDS011;69466;55.948;37.484;2023-09-19T09:04:03;24.38;;;14.85;;
80136;SDS011;69466;55.948;37.484;2023-09-19T09:06:34;22.92;;;14.35;;
80136;SDS011;69466;55.948;37.484;2023-09-19T09:09:02;26.17;;;15.68;;
80136;SDS011;69466;55.948;37.484;2023-09-19T09:11:29;26.67;;;16.30;;
80136;SDS011;69466;55.948;37.484;2023-09-19T09:13:58;23.05;;;14.88;;
80136;SDS011;69466;55.948;37.484;2023-09-19T09:16:25;27.23;;;15.80;;
80136;SDS011;69466;55.948;37.484;2023-09-19T09:18:51;24.20;;;14.95;;
80136;SDS011;69466;55.948;37.484;2023-09-19T09:21:24;27.45;;;15.90;;
80136;SDS011;69466;55.948;37.484;2023-09-19T09:23:51;23.20;;;14.15;;
80136;SDS011;69466;55.948;37.484;2023-09-19T09:26:19;25.15;;;14.50;;
80136;SDS011;69466;55.948;37.484;2023-09-19T09:29:07;23.55;;;15.10;;
80136;SDS011;69466;55.948;37.484;2023-09-19T09:31:33;25.83;;;15.52;;
80136;SDS011;69466;55.948;37.484;2023-09-19T09:33:59;27.88;;;15.50;;
80136;SDS011;69466;55.948;37.484;2023-09-19T09:36:38;22.17;;;14.13;;
80136;SDS011;69466;55.948;37.484;2023-09-19T09:39:07;20.48;;;14.13;;
80136;SDS011;69466;55.948;37.484;2023-09-19T09:41:50;20.55;;;14.45;;
80136;SDS011;69466;55.948;37.484;2023-09-19T09:44:18;24.30;;;14.45;;
80136;SDS011;69466;55.948;37.484;2023-09-19T09:46:45;22.30;;;13.65;;
80136;SDS011;69466;55.948;37.484;2023-09-19T09:49:25;21.05;;;14.90;;
80136;SDS011;69466;55.948;37.484;2023-09-19T09:54:58;22.50;;;13.40;;
80136;SDS011;69466;55.948;37.484;2023-09-19T09:57:26;25.77;;;14.45;;
80136;SDS011;69466;55.948;37.484;2023-09-19T09:59:53;27.13;;;15.80;;
80136;SDS011;69466;55.948;37.484;2023-09-19T10:02:27;22.63;;;15.15;;
80136;SDS011;69466;55.948;37.484;2023-09-19T10:05:20;22.05;;;14.60;;
80136;SDS011;69466;55.948;37.484;2023-09-19T10:07:51;23.75;;;14.82;;
80136;SDS011;69466;55.948;37.484;2023-09-19T10:10:31;21.73;;;15.38;;
80136;SDS011;69466;55.948;37.484;2023-09-19T10:13:05;25.77;;;14.65;;
80136;SDS011;69466;55.948;37.484;2023-09-19T10:15:33;31.02;;;15.95;;
80136;SDS011;69466;55.948;37.484;2023-09-19T10:18:00;22.83;;;15.07;;
80136;SDS011;69466;55.948;37.484;2023-09-19T10:20:30;21.30;;;14.75;;
80136;SDS011;69466;55.948;37.484;2023-09-19T10:23:03;21.98;;;14.15;;
80136;SDS011;69466;55.948;37.484;2023-09-19T10:25:39;21.25;;;14.45;;
80136;SDS011;69466;55.948;37.484;2023-09-19T10:28:07;20.25;;;14.82;;
80136;SDS011;69466;55.948;37.484;2023-09-19T10:30:38;24.70;;;15.77;;
80136;SDS011;69466;55.948;37.484;2023-09-19T10:33:13;22.75;;;14.95;;
80136;SDS011;69466;55.948;37.484;2023-09-19T10:35:47;24.30;;;14.88;;
80136;SDS011;69466;55.948;37.484;2023-09-19T10:38:22;26.10;;;15.63;;
80136;SDS011;69466;55.948;37.484;2023-09-19T10:40:50;26.75;;;16.60;;
80136;SDS011;69466;55.948;37.484;2023-09-19T10:43:20;26.77;;;15.88;;
80136;SDS011;69466;55.948;37.484;2023-09-19T10:45:47;26.15;;;15.80;;
80136;SDS011;69466;55.948;37.484;2023-09-19T10:48:16;24.42;;;14.82;;
80136;SDS011;69466;55.948;37.484;2023-09-19T10:50:48;25.63;;;14.80;;
80136;SDS011;69466;55.948;37.484;2023-09-19T10:53:20;26.60;;;16.35;;
80136;SDS011;69466;55.948;37.484;2023-09-19T10:55:48;23.15;;;15.65;;
80136;SDS011;69466;55.948;37.484;2023-09-19T10:58:26;24.00;;;15.65;;
80136;SDS011;69466;55.948;37.484;2023-09-19T11:00:55;22.05;;;15.63;;
80136;SDS011;69466;55.948;37.484;2023-09-19T11:03:31;22.17;;;14.88;;
80136;SDS011;69466;55.948;37.484;2023-09-19T11:09:01;22.45;;;15.07;;
80136;SDS011;69466;55.948;37.484;2023-09-19T11:11:45;22.20;;;15.55;;
80136;SDS011;69466;55.948;37.484;2023-09-19T11:23:19;30.48;;;16.98;;
80136;SDS011;69466;55.948;37.484;2023-09-19T11:25:47;24.70;;;15.90;;
80136;SDS011;69466;55.948;37.484;2023-09-19T11:28:28;30.67;;;16.40;;
80136;SDS011;69466;55.948;37.484;2023-09-19T11:30:56;33.42;;;18.48;;
80136;SDS011;69466;55.948;37.484;2023-09-19T11:33:25;30.83;;;19.52;;
80136;SDS011;69466;55.948;37.484;2023-09-19T11:39:07;26.15;;;16.55;;
80136;SDS011;69466;55.948;37.484;2023-09-19T11:41:37;25.17;;;15.70;;
80136;SDS011;69466;55.948;37.484;2023-09-19T11:46:32;27.15;;;15.88;;
80136;SDS011;69466;55.948;37.484;2023-09-19T11:49:06;25.08;;;16.55;;
80136;SDS011;69466;55.948;37.484;2023-09-19T11:51:43;26.40;;;16.67;;
80136;SDS011;69466;55.948;37.484;2023-09-19T11:54:10;24.58;;;16.90;;
80136;SDS011;69466;55.948;37.484;2023-09-19T11:56:57;22.08;;;14.95;;
80136;SDS011;69466;55.948;37.484;2023-09-19T11:59:27;19.98;;;15.05;;
80136;SDS011;69466;55.948;37.484;2023-09-19T12:01:56;28.08;;;16.08;;
80136;SDS011;69466;55.948;37.484;2023-09-19T12:04:42;23.48;;;15.00;;
80136;SDS011;69466;55.948;37.484;2023-09-19T12:07:12;26.48;;;16.10;;
80136;SDS011;69466;55.948;37.484;2023-09-19T12:09:43;29.15;;;16.50;;
80136;SDS011;69466;55.948;37.484;2023-09-19T12:12:20;25.98;;;15.63;;
80136;SDS011;69466;55.948;37.484;2023-09-19T12:14:53;26.05;;;16.58;;
80136;SDS011;69466;55.948;37.484;2023-09-19T12:17:20;28.77;;;16.20;;
80136;SDS011;69466;55.948;37.484;2023-09-19T12:19:51;26.98;;;15.73;;
80136;SDS011;69466;55.948;37.484;2023-09-19T12:22:18;25.25;;;16.40;;
80136;SDS011;69466;55.948;37.484;2023-09-19T12:24:46;28.58;;;16.02;;
80136;SDS011;69466;55.948;37.484;2023-09-19T12:27:12;28.25;;;16.08;;
80136;SDS011;69466;55.948;37.484;2023-09-19T12:32:09;29.42;;;16.30;;
80136;SDS011;69466;55.948;37.484;2023-09-19T12:34:36;27.85;;;16.15;;
80136;SDS011;69466;55.948;37.484;2023-09-19T12:37:08;26.83;;;16.95;;
80136;SDS011;69466;55.948;37.484;2023-09-19T12:39:46;24.80;;;15.00;;
80136;SDS011;69466;55.948;37.484;2023-09-19T12:42:15;23.70;;;15.85;;
80136;SDS011;69466;55.948;37.484;2023-09-19T12:44:42;24.70;;;16.15;;
80136;SDS011;69466;55.948;37.484;2023-09-19T12:47:17;23.80;;;15.73;;
80136;SDS011;69466;55.948;37.484;2023-09-19T12:52:40;23.58;;;15.50;;
80136;SDS011;69466;55.948;37.484;2023-09-19T12:55:07;29.58;;;16.65;;
80136;SDS011;69466;55.948;37.484;2023-09-19T12:57:34;21.67;;;14.88;;
80136;SDS011;69466;55.948;37.484;2023-09-19T13:00:01;26.45;;;15.10;;
80136;SDS011;69466;55.948;37.484;2023-09-19T13:02:31;23.63;;;14.52;;
80136;SDS011;69466;55.948;37.484;2023-09-19T13:04:58;23.73;;;14.93;;
80136;SDS011;69466;55.948;37.484;2023-09-19T13:07:44;22.38;;;14.50;;
80136;SDS011;69466;55.948;37.484;2023-09-19T13:10:13;24.10;;;15.15;;
80136;SDS011;69466;55.948;37.484;2023-09-19T13:12:43;22.83;;;15.10;;
80136;SDS011;69466;55.948;37.484;2023-09-19T13:15:13;28.63;;;15.00;;
80136;SDS011;69466;55.948;37.484;2023-09-19T13:17:49;24.77;;;15.15;;
80136;SDS011;69466;55.948;37.484;2023-09-19T13:20:24;24.13;;;14.15;;
80136;SDS011;69466;55.948;37.484;2023-09-19T13:22:54;25.23;;;13.60;;
80136;SDS011;69466;55.948;37.484;2023-09-19T13:25:26;29.80;;;13.90;;
80136;SDS011;69466;55.948;37.484;2023-09-19T13:27:57;19.65;;;12.77;;
80136;SDS011;69466;55.948;37.484;2023-09-19T13:30:24;21.33;;;13.70;;
80136;SDS011;69466;55.948;37.484;2023-09-19T13:33:04;23.70;;;14.00;;
80136;SDS011;69466;55.948;37.484;2023-09-19T13:35:32;20.25;;;12.20;;
80136;SDS011;69466;55.948;37.484;2023-09-19T13:37:58;23.42;;;14.02;;
80136;SDS011;69466;55.948;37.484;2023-09-19T13:40:25;21.00;;;12.77;;
80136;SDS011;69466;55.948;37.484;2023-09-19T13:42:56;22.88;;;12.30;;
80136;SDS011;69466;55.948;37.484;2023-09-19T13:45:22;28.88;;;14.75;;
80136;SDS011;69466;55.948;37.484;2023-09-19T13:47:50;34.90;;;15.77;;
80136;SDS011;69466;55.948;37.484;2023-09-19T13:50:16;27.73;;;13.85;;
80136;SDS011;69466;55.948;37.484;2023-09-19T13:52:44;28.85;;;14.18;;
80136;SDS011;69466;55.948;37.484;2023-09-19T13:55:10;22.33;;;12.63;;
80136;SDS011;69466;55.948;37.484;2023-09-19T13:57:36;21.08;;;13.57;;
80136;SDS011;69466;55.948;37.484;2023-09-19T14:00:01;21.35;;;12.73;;
80136;SDS011;69466;55.948;37.484;2023-09-19T14:02:38;24.65;;;12.90;;
80136;SDS011;69466;55.948;37.484;2023-09-19T14:05:05;18.88;;;13.80;;
80136;SDS011;69466;55.948;37.484;2023-09-19T14:07:32;23.00;;;12.40;;
80136;SDS011;69466;55.948;37.484;2023-09-19T14:09:58;22.73;;;12.88;;
80136;SDS011;69466;55.948;37.484;2023-09-19T14:12:23;20.35;;;12.30;;
80136;SDS011;69466;55.948;37.484;2023-09-19T14:14:49;16.42;;;11.68;;
80136;SDS011;69466;55.948;37.484;2023-09-19T14:17:16;20.88;;;12.63;;
80136;SDS011;69466;55.948;37.484;2023-09-19T14:19:44;20.75;;;12.68;;
80136;SDS011;69466;55.948;37.484;2023-09-19T14:22:10;22.75;;;13.73;;
80136;SDS011;69466;55.948;37.484;2023-09-19T14:24:36;20.35;;;11.80;;
80136;SDS011;69466;55.948;37.484;2023-09-19T14:27:02;20.05;;;12.63;;
80136;SDS011;69466;55.948;37.484;2023-09-19T14:29:31;25.27;;;12.40;;
80136;SDS011;69466;55.948;37.484;2023-09-19T14:31:57;19.80;;;12.30;;
80136;SDS011;69466;55.948;37.484;2023-09-19T14:34:23;21.05;;;12.63;;
80136;SDS011;69466;55.948;37.484;2023-09-19T14:36:49;20.25;;;11.95;;
80136;SDS011;69466;55.948;37.484;2023-09-19T14:39:15;24.35;;;12.93;;
80136;SDS011;69466;55.948;37.484;2023-09-19T14:41:41;21.92;;;12.63;;
80136;SDS011;69466;55.948;37.484;2023-09-19T14:44:07;23.38;;;13.23;;
80136;SDS011;69466;55.948;37.484;2023-09-19T14:46:35;20.92;;;13.27;;
80136;SDS011;69466;55.948;37.484;2023-09-19T14:49:01;24.50;;;13.55;;
80136;SDS011;69466;55.948;37.484;2023-09-19T14:51:30;18.50;;;12.68;;
80136;SDS011;69466;55.948;37.484;2023-09-19T14:53:56;18.73;;;11.60;;
80136;SDS011;69466;55.948;37.484;2023-09-19T14:56:23;19.77;;;12.05;;
80136;SDS011;69466;55.948;37.484;2023-09-19T14:58:51;19.48;;;13.35;;
80136;SDS011;69466;55.948;37.484;2023-09-19T15:01:17;20.67;;;12.73;;
80136;SDS011;69466;55.948;37.484;2023-09-19T15:03:43;18.85;;;12.40;;
80136;SDS011;69466;55.948;37.484;2023-09-19T15:06:10;23.33;;;13.10;;